Latest Weather Observations for Cerberus

IDV60801

Issued at 2:02 pm EST Friday 22 September 2017 (issued every 30 minutes, with the page automatically refreshed every 10 minutes)

About weather observations | Map of weather stations | Latest weather observations for VIC | Other Formats
Station Details ID: 086361 Name: CERBERUS Lat: -38.36 Lon: 145.18 Height: 12.69 m
Data from the previous 72 hours. | See also: Recent months at Cerberus
Date/Time
EST
Temp
°C
App
Temp
°C
Dew
Point
°C
Rel
Hum
%
Delta-T
°C
Wind Press
QNH
hPa
Press
MSL
hPa
Rain since
9am
mm
Dir  Spd
km/h
Gust
km/h
Spd
kts
Gust
kts
22/02:00pm 19.3 18.2 10.8 58 4.6 NE 7 13 4 7 1006.0 1006.0 0.0
22/01:30pm 18.8 18.1 11.4 62 4.1 ENE 6 11 3 6 1006.6 1006.6 0.0
22/01:00pm 18.4 17.5 11.2 63 3.9 NE 7 13 4 7 1007.0 1007.0 0.0
22/12:30pm 17.4 16.2 10.3 63 3.8 NE 7 13 4 7 1007.5 1007.5 0.0
22/12:00pm 16.1 14.6 10.4 69 3.0 NE 9 15 5 8 1007.9 1007.9 0.0
22/11:30am 16.3 14.2 9.9 66 3.4 NE 11 17 6 9 1008.5 1008.5 0.0
22/11:00am 15.8 14.6 10.3 70 2.9 NNE 7 13 4 7 1009.1 1009.1 0.0
22/10:30am 15.5 13.8 9.8 69 3.0 NE 9 15 5 8 1009.2 1009.2 0.0
22/10:00am 14.4 12.3 9.8 74 2.4 NE 11 17 6 9 1009.5 1009.5 0.0
22/09:30am 13.3 12.2 10.8 85 1.3 NE 7 13 4 7 1009.6 1009.6 0.0
22/09:00am 12.6 11.8 11.2 91 0.7 NNE 6 13 3 7 1009.7 1009.7 0.0
22/08:30am 11.6 10.6 10.3 92 0.7 NNE 6 9 3 5 1010.0 1010.0 0.0
22/08:00am 10.7 10.2 9.5 92 0.6 SSW 2 4 1 2 1010.0 1010.0 0.0
22/07:30am 8.9 8.3 7.5 91 0.7 CALM 0 0 0 0 1009.9 1009.9 0.0
22/07:00am 7.9 7.1 6.5 91 0.6 CALM 0 0 0 0 1009.8 1009.8 0.0
22/06:30am 7.4 6.5 6.0 91 0.6 CALM 0 0 0 0 1009.9 1009.9 0.0
22/06:00am 7.1 6.1 5.6 90 0.7 CALM 0 0 0 0 1010.0 1010.0 0.0
22/05:30am 7.5 5.8 6.0 90 0.7 SSW 4 4 2 2 1009.8 1009.8 0.0
22/05:00am 8.3 7.6 6.8 90 0.7 CALM 0 0 0 0 1009.7 1009.7 0.0
22/04:30am 8.9 8.3 7.2 89 0.8 CALM 0 0 0 0 1009.5 1009.5 0.0
22/04:00am 10.0 9.6 8.1 88 0.9 CALM 0 0 0 0 1009.7 1009.7 0.0
22/03:30am 10.6 10.3 8.5 87 1.0 CALM 0 2 0 1 1009.7 1009.7 0.0
22/03:00am 11.4 11.3 9.5 88 1.0 CALM 0 0 0 0 1010.1 1010.1 0.0
22/02:30am 11.6 11.1 9.5 87 1.1 SSW 2 4 1 2 1010.5 1010.5 0.0
22/02:00am 11.7 10.9 9.6 87 1.1 SSW 4 6 2 3 1010.9 1010.9 0.0
22/01:30am 11.8 11.8 9.7 87 1.1 CALM 0 0 0 0 1011.5 1011.6 0.0
22/01:00am 11.5 11.4 9.6 88 1.0 CALM 0 0 0 0 1011.5 1011.6 0.0
22/12:30am 11.5 11.4 9.6 88 1.0 CALM 0 0 0 0 1011.9 1012.0 0.0
22/12:00am 11.4 10.9 9.5 88 1.0 SSW 2 4 1 2 1011.9 1012.0 0.0
 
Date/Time
EST
Temp
°C
App
Temp
°C
Dew
Point
°C
Rel
Hum
%
Delta-T
°C
Wind Press
QNH
hPa
Press
MSL
hPa
Rain since
9am
mm
Dir  Spd
km/h
Gust
km/h
Spd
kts
Gust
kts
21/11:30pm 11.1 10.2 9.2 88 0.9 SSW 4 4 2 2 1012.0 1012.1 0.0
21/11:00pm 11.0 10.4 8.8 86 1.1 SSW 2 4 1 2 1011.8 1011.9 0.0
21/10:30pm 11.9 10.7 9.5 85 1.2 SSW 6 7 3 4 1011.8 1011.9 0.0
21/10:00pm 12.6 11.3 10.1 85 1.3 SW 7 13 4 7 1011.7 1011.8 0.0
21/09:30pm 12.7 11.5 10.4 86 1.2 SW 7 13 4 7 1011.3 1011.4 0.0
21/09:00pm 12.9 11.4 10.6 86 1.2 SW 9 13 5 7 1011.1 1011.2 0.0
21/08:30pm 13.0 11.9 10.5 85 1.3 SSW 7 11 4 6 1010.8 1010.8 0.0
21/08:00pm 13.2 12.4 10.9 86 1.2 SSW 6 9 3 5 1010.5 1010.5 0.0
21/07:30pm 13.3 11.9 11.0 86 1.2 SSW 9 17 5 9 1010.0 1010.0 0.0
21/07:00pm 13.3 12.3 11.0 86 1.2 SSW 7 13 4 7 1009.4 1009.4 0.0
21/06:30pm 13.5 11.4 11.0 85 1.3 SW 13 22 7 12 1009.1 1009.1 0.0
21/06:00pm 13.9 11.4 10.9 82 1.6 SW 15 20 8 11 1008.9 1008.9 0.0
21/05:30pm 14.4 11.8 10.6 78 2.0 SW 15 24 8 13 1008.6 1008.6 0.0
21/05:00pm 15.2 11.0 9.8 70 2.8 SSW 22 37 12 20 1007.9 1007.9 0.0
21/04:52pm 15.7 11.7 8.9 64 3.5 SW 20 37 11 20 1008.2 1008.2 0.0
21/04:30pm 20.7 16.9 5.9 38 7.4 WNW 15 26 8 14 1007.3 1007.3 0.0
21/04:00pm 22.2 18.0 5.6 34 8.3 NW 17 33 9 18 1006.9 1006.9 0.0
21/03:30pm 21.9 17.2 6.2 36 7.9 NNW 20 33 11 18 1006.7 1006.7 0.0
21/03:00pm 21.9 17.0 5.3 34 8.3 NNW 20 32 11 17 1006.4 1006.4 0.0
21/02:30pm 22.1 17.2 5.1 33 8.4 NNW 20 43 11 23 1006.5 1006.5 0.0
21/02:00pm 21.0 15.4 3.7 32 8.3 NNW 22 39 12 21 1006.7 1006.7 0.0
21/01:30pm 21.6 15.3 3.8 31 8.6 NNW 26 43 14 23 1006.9 1006.9 0.0
21/01:00pm 20.8 15.6 3.5 32 8.3 NNW 20 39 11 21 1007.2 1007.2 0.0
21/12:47pm 20.6 13.8 3.3 32 8.2 N 28 57 15 31 1007.1 1007.1 0.0
21/12:30pm 20.1 15.0 4.2 35 7.6 NNW 20 39 11 21 1007.6 1007.6 0.0
21/12:00pm 20.4 15.6 4.8 36 7.6 N 19 35 10 19 1008.0 1008.0 0.0
21/11:30am 18.8 12.2 4.2 38 6.9 N 28 48 15 26 1008.6 1008.6 0.0
21/11:00am 18.0 12.1 3.9 39 6.6 N 24 43 13 23 1009.6 1009.6 0.0
21/10:45am 18.0 11.2 3.1 37 6.9 NNW 28 56 15 30 1009.9 1009.9 0.0
21/10:30am 17.6 12.6 4.6 42 6.2 NNW 20 35 11 19 1010.0 1010.0 0.0
21/10:00am 15.7 10.5 3.5 44 5.6 N 20 35 11 19 1009.1 1009.1 0.0
21/09:30am 15.1 10.9 3.9 47 5.1 N 15 24 8 13 1010.7 1010.7 0.0
21/09:00am 15.0 10.4 3.8 47 5.1 N 17 33 9 18 1010.8 1010.8 0.0
21/08:30am 15.1 10.9 3.9 47 5.1 N 15 28 8 15 1011.2 1011.3 0.0
21/08:00am 14.9 10.7 4.0 48 5.0 N 15 28 8 15 1011.7 1011.8 0.0
21/07:30am 14.7 10.9 3.8 48 5.0 N 13 28 7 15 1012.0 1012.1 0.0
21/07:00am 14.5 10.3 3.9 49 4.8 N 15 24 8 13 1011.9 1012.0 0.0
21/06:30am 13.9 9.7 3.9 51 4.5 N 15 24 8 13 1011.4 1011.5 0.0
21/06:00am 12.9 9.2 4.6 57 3.8 N 13 24 7 13 1011.3 1011.4 0.0
21/05:30am 12.4 9.2 4.9 60 3.4 N 11 17 6 9 1011.6 1011.7 0.0
21/05:00am 12.0 8.4 5.0 62 3.2 N 13 20 7 11 1011.5 1011.6 0.0
21/04:30am 9.3 7.6 5.7 78 1.6 N 4 9 2 5 1011.8 1011.9 0.0
21/04:00am 8.8 6.7 5.9 82 1.3 NE 6 9 3 5 1012.0 1012.1 0.0
21/03:30am 8.7 6.9 5.6 81 1.4 NE 4 6 2 3 1012.5 1012.6 0.0
21/03:00am 9.1 7.7 5.5 78 1.6 NNE 2 6 1 3 1012.7 1012.8 0.0
21/02:30am 9.7 7.8 4.9 72 2.2 NE 4 6 2 3 1013.0 1013.1 0.0
21/02:00am 10.5 8.6 4.9 68 2.5 NE 4 4 2 2 1013.2 1013.3 0.0
21/01:30am 11.2 9.0 5.1 66 2.8 NNE 6 9 3 5 1013.2 1013.3 0.0
21/01:00am 12.3 9.5 5.2 62 3.3 NNE 9 17 5 9 1013.6 1013.6 0.0
21/12:30am 13.0 9.8 5.2 59 3.6 N 11 19 6 10 1014.0 1014.0 0.0
21/12:00am 13.7 9.8 5.3 57 3.9 N 15 26 8 14 1014.2 1014.2 0.0
 
Date/Time
EST
Temp
°C
App
Temp
°C
Dew
Point
°C
Rel
Hum
%
Delta-T
°C
Wind Press
QNH
hPa
Press
MSL
hPa
Rain since
9am
mm
Dir  Spd
km/h
Gust
km/h
Spd
kts
Gust
kts
20/11:30pm 13.4 10.7 5.6 59 3.7 N 9 17 5 9 1014.5 1014.5 0.0
20/11:00pm 13.7 10.6 5.6 58 3.8 N 11 17 6 9 1014.9 1014.9 0.0
20/10:30pm 14.1 11.4 5.7 57 4.0 N 9 15 5 8 1015.6 1015.6 0.0
20/10:00pm 13.8 11.8 6.2 60 3.6 NNW 6 9 3 5 1015.6 1015.6 0.0
20/09:30pm 14.6 12.3 5.9 56 4.2 N 7 13 4 7 1015.3 1015.3 0.0
20/09:00pm 14.9 11.5 6.0 55 4.3 N 13 24 7 13 1015.2 1015.2 0.0
20/08:30pm 15.4 12.7 5.6 52 4.7 N 9 22 5 12 1015.2 1015.2 0.0
20/08:00pm 15.7 11.9 5.6 51 4.8 NNW 15 26 8 14 1015.4 1015.4 0.0
20/07:30pm 15.7 13.1 5.9 52 4.7 N 9 19 5 10 1015.1 1015.1 0.0
20/07:00pm 15.4 13.1 5.9 53 4.6 N 7 15 4 8 1014.9 1014.9 0.0
20/06:30pm 15.7 13.1 5.9 52 4.7 N 9 19 5 10 1015.0 1015.0 0.0
20/06:00pm 16.3 13.3 5.9 50 5.0 NNW 11 19 6 10 1014.9 1014.9 0.0
20/05:30pm 16.9 14.3 6.1 49 5.3 N 9 17 5 9 1014.5 1014.5 0.0
20/05:00pm 17.3 14.4 6.5 49 5.3 N 11 19 6 10 1014.2 1014.2 0.0
20/04:30pm 17.5 14.0 5.4 45 5.8 NNW 13 22 7 12 1014.7 1014.7 0.0
20/04:00pm 17.6 14.6 5.9 46 5.7 NNW 11 15 6 8 1014.7 1014.7 0.0
20/03:30pm 18.1 15.1 6.0 45 5.9 NNW 11 24 6 13 1015.1 1015.1 0.0
20/03:00pm 17.4 12.9 4.0 41 6.3 NNW 17 28 9 15 1015.3 1015.3 0.0
20/02:30pm 17.9 14.2 6.1 46 5.8 NNW 15 24 8 13 1015.8 1015.8 0.0
20/02:00pm 17.0 12.3 5.3 46 5.6 NNW 19 30 10 16 1016.1 1016.1 0.0
20/01:30pm 16.6 12.3 5.3 47 5.4 NNW 17 28 9 15 1016.9 1016.9 0.0
20/01:00pm 16.3 12.2 6.4 52 4.8 NNW 17 24 9 13 1017.5 1017.5 0.0
20/12:30pm 15.8 12.3 5.4 50 5.0 NNW 13 26 7 14 1018.3 1018.3 0.0
20/12:00pm 15.3 11.1 5.5 52 4.7 NNW 17 26 9 14 1019.1 1019.1 0.0
20/11:30am 14.7 10.0 5.0 52 4.5 NW 19 30 10 16 1019.6 1019.6 0.0
20/11:00am 14.0 9.9 4.6 53 4.3 NW 15 24 8 13 1019.6 1019.6 0.0
20/10:30am 12.9 9.3 4.8 58 3.7 NNW 13 22 7 12 1020.0 1020.0 0.0
20/10:00am 13.0 9.5 5.4 60 3.5 N 13 22 7 12 1020.0 1020.0 0.0
20/09:30am 12.4 9.3 5.6 63 3.2 N 11 19 6 10 1020.3 1020.3 0.0
20/09:00am 11.5 8.4 5.4 66 2.8 NNW 11 17 6 9 1020.9 1020.9 0.0
20/08:30am 10.5 7.8 5.7 72 2.2 NNW 9 17 5 9 1020.8 1020.8 0.0
20/08:00am 9.0 6.7 5.6 79 1.5 N 7 17 4 9 1020.8 1020.8 0.0
20/07:30am 8.7 6.6 6.7 87 0.9 NNW 7 13 4 7 1020.8 1020.8 0.0
20/07:00am 7.6 5.6 6.1 90 0.7 NNW 6 11 3 6 1020.9 1020.9 0.0
20/06:30am 7.0 4.9 5.6 91 0.6 NNW 6 9 3 5 1021.1 1021.1 0.0
20/06:00am 6.7 4.9 5.3 91 0.6 NW 4 7 2 4 1020.8 1020.8 0.0
20/05:30am 6.9 5.1 5.4 90 0.7 NNW 4 7 2 4 1020.7 1020.7 0.0
20/05:00am 7.0 4.9 5.6 91 0.6 NNW 6 9 3 5 1020.5 1020.5 0.0
20/04:30am 7.0 4.9 5.6 91 0.6 NNW 6 9 3 5 1020.3 1020.3 0.0
20/04:00am 6.6 4.4 5.2 91 0.6 NNW 6 7 3 4 1020.3 1020.3 0.0
20/03:30am 6.4 4.5 5.0 91 0.6 NNW 4 6 2 3 1020.4 1020.4 0.0
20/03:00am 6.0 4.4 4.6 91 0.6 N 2 4 1 2 1020.6 1020.6 0.0
20/02:30am 4.0 2.4 2.5 90 0.6 CALM 0 0 0 0 1020.8 1020.8 0.0
20/02:00am 4.5 2.2 3.0 90 0.6 N 4 6 2 3 1020.9 1020.9 0.0
20/01:30am 4.5 2.2 3.0 90 0.6 N 4 4 2 2 1021.2 1021.2 0.0
20/01:00am 5.2 3.8 3.7 90 0.6 CALM 0 0 0 0 1021.5 1021.5 0.0
20/12:30am 5.4 2.9 3.7 89 0.7 SW 6 6 3 3 1021.5 1021.5 0.0
20/12:00am 5.1 2.9 3.1 87 0.8 SSW 4 6 2 3 1021.7 1021.7 0.0
 
Date/Time
EST
Temp
°C
App
Temp
°C
Dew
Point
°C
Rel
Hum
%
Delta-T
°C
Wind Press
QNH
hPa
Press
MSL
hPa
Rain since
9am
mm
Dir  Spd
km/h
Gust
km/h
Spd
kts
Gust
kts
19/11:30pm 6.0 4.3 4.0 87 0.8 SSW 2 6 1 3 1022.0 1022.0 0.0
19/11:00pm 7.0 4.7 5.0 87 0.9 WNW 6 6 3 3 1022.1 1022.1 0.0
19/10:30pm 6.7 4.7 4.2 84 1.1 WNW 4 6 2 3 1022.2 1022.2 0.0
19/10:00pm 7.5 5.9 4.3 80 1.4 WNW 2 4 1 2 1022.4 1022.4 0.0
19/09:30pm 8.3 6.0 4.7 78 1.6 NW 6 7 3 4 1022.3 1022.3 0.0
19/09:00pm 9.3 7.5 5.3 76 1.8 WNW 4 4 2 2 1022.2 1022.2 0.0
19/08:30pm 9.4 7.0 4.4 71 2.2 W 6 6 3 3 1022.1 1022.1 0.0
19/08:00pm 9.9 7.6 4.7 70 2.3 WSW 6 11 3 6 1022.0 1022.0 0.0
19/07:30pm 10.3 7.8 4.9 69 2.4 WSW 7 13 4 7 1021.9 1021.9 0.0
19/07:00pm 10.4 8.0 5.2 70 2.4 WSW 7 9 4 5 1021.6 1021.6 0.0
19/06:30pm 10.4 7.7 5.4 71 2.3 WSW 9 13 5 7 1021.3 1021.3 0.0
19/06:00pm 10.7 7.1 5.0 68 2.6 WSW 13 20 7 11 1021.1 1021.1 0.0
19/05:30pm 11.1 6.7 4.8 65 2.9 SW 17 28 9 15 1020.8 1020.8 0.0
19/05:00pm 12.0 7.6 4.7 61 3.3 SW 17 33 9 18 1020.6 1020.6 0.0
19/04:30pm 12.2 7.3 4.2 58 3.6 SW 19 26 10 14 1020.3 1020.3 0.0
19/04:00pm 13.1 7.8 4.8 57 3.8 WSW 22 32 12 17 1020.2 1020.2 0.0
19/03:30pm 12.8 7.6 3.7 54 4.1 WSW 20 32 11 17 1020.1 1020.1 0.0
19/03:00pm 12.3 6.7 3.5 55 3.9 WSW 22 32 12 17 1020.0 1020.0 0.0
19/02:30pm 13.6 8.1 4.2 53 4.3 WSW 22 35 12 19 1019.8 1019.8 0.0

Other Formats:

Comma delimited format used in spreadsheet applications
http://www.bom.gov.au/fwo/IDV60801/IDV60801.94898.axf

JavaScript Object Notation format (JSON) in row-major order
http://www.bom.gov.au/fwo/IDV60801/IDV60801.94898.json